sensor_id;sensor_type;location;lat;lon;timestamp;pressure;altitude;pressure_sealevel;temperature;humidity
55610;BME280;41486;52.502;13.486;2023-06-04T00:00:21;101624.13;;;12.85;43.79
55610;BME280;41486;52.502;13.486;2023-06-04T00:02:49;101620.63;;;12.84;44.07
55610;BME280;41486;52.502;13.486;2023-06-04T00:05:21;101618.63;;;12.88;44.42
55610;BME280;41486;52.502;13.486;2023-06-04T00:07:52;101615.75;;;12.78;44.72
55610;BME280;41486;52.502;13.486;2023-06-04T00:10:20;101611.66;;;12.74;45.03
55610;BME280;41486;52.502;13.486;2023-06-04T00:12:49;101612.50;;;12.74;45.51
55610;BME280;41486;52.502;13.486;2023-06-04T00:15:17;101612.19;;;12.66;45.74
55610;BME280;41486;52.502;13.486;2023-06-04T00:17:45;101613.47;;;12.60;46.15
55610;BME280;41486;52.502;13.486;2023-06-04T00:20:14;101603.88;;;12.59;46.48
55610;BME280;41486;52.502;13.486;2023-06-04T00:22:42;101603.00;;;12.59;46.83
55610;BME280;41486;52.502;13.486;2023-06-04T00:25:10;101607.88;;;12.52;46.90
55610;BME280;41486;52.502;13.486;2023-06-04T00:27:38;101598.91;;;12.55;47.40
55610;BME280;41486;52.502;13.486;2023-06-04T00:30:09;101602.59;;;12.26;47.88
55610;BME280;41486;52.502;13.486;2023-06-04T00:32:37;101594.38;;;12.44;47.72
55610;BME280;41486;52.502;13.486;2023-06-04T00:35:07;101602.16;;;12.20;48.58
55610;BME280;41486;52.502;13.486;2023-06-04T00:37:36;101591.41;;;12.10;48.78
55610;BME280;41486;52.502;13.486;2023-06-04T00:40:05;101597.19;;;12.15;48.77
55610;BME280;41486;52.502;13.486;2023-06-04T00:42:33;101597.84;;;12.44;47.88
55610;BME280;41486;52.502;13.486;2023-06-04T00:45:01;101599.22;;;12.24;48.74
55610;BME280;41486;52.502;13.486;2023-06-04T00:47:31;101603.44;;;12.01;49.34
55610;BME280;41486;52.502;13.486;2023-06-04T00:49:59;101596.19;;;11.90;49.69
55610;BME280;41486;52.502;13.486;2023-06-04T00:52:28;101594.69;;;11.73;50.40
55610;BME280;41486;52.502;13.486;2023-06-04T00:54:56;101592.78;;;11.75;51.03
55610;BME280;41486;52.502;13.486;2023-06-04T00:57:24;101594.47;;;11.76;50.85
55610;BME280;41486;52.502;13.486;2023-06-04T00:59:52;101599.19;;;11.71;51.33
55610;BME280;41486;52.502;13.486;2023-06-04T01:02:23;101595.28;;;11.64;51.41
55610;BME280;41486;52.502;13.486;2023-06-04T01:05:01;101596.25;;;11.76;51.40
55610;BME280;41486;52.502;13.486;2023-06-04T01:07:33;101593.34;;;11.93;51.47
55610;BME280;41486;52.502;13.486;2023-06-04T01:10:03;101601.19;;;11.67;51.66
55610;BME280;41486;52.502;13.486;2023-06-04T01:12:32;101596.31;;;11.61;51.95
55610;BME280;41486;52.502;13.486;2023-06-04T01:15:00;101595.19;;;11.65;52.25
55610;BME280;41486;52.502;13.486;2023-06-04T01:17:34;101593.53;;;11.77;52.37
55610;BME280;41486;52.502;13.486;2023-06-04T01:23:16;101584.97;;;11.74;53.80
55610;BME280;41486;52.502;13.486;2023-06-04T01:25:48;101591.88;;;11.62;53.56
55610;BME280;41486;52.502;13.486;2023-06-04T01:28:17;101588.81;;;11.55;53.67
55610;BME280;41486;52.502;13.486;2023-06-04T01:30:48;101584.69;;;11.51;53.77
55610;BME280;41486;52.502;13.486;2023-06-04T01:33:19;101590.78;;;11.39;54.40
55610;BME280;41486;52.502;13.486;2023-06-04T01:35:49;101588.03;;;11.40;54.87
55610;BME280;41486;52.502;13.486;2023-06-04T01:38:17;101584.25;;;11.44;54.67
55610;BME280;41486;52.502;13.486;2023-06-04T01:40:46;101596.69;;;11.42;54.84
55610;BME280;41486;52.502;13.486;2023-06-04T01:43:14;101592.94;;;11.32;55.13
55610;BME280;41486;52.502;13.486;2023-06-04T01:45:42;101588.78;;;11.42;55.07
55610;BME280;41486;52.502;13.486;2023-06-04T01:48:11;101582.81;;;11.53;54.83
55610;BME280;41486;52.502;13.486;2023-06-04T01:50:39;101582.13;;;11.36;55.79
55610;BME280;41486;52.502;13.486;2023-06-04T01:53:08;101577.44;;;11.27;56.24
55610;BME280;41486;52.502;13.486;2023-06-04T01:55:36;101580.66;;;11.18;56.81
55610;BME280;41486;52.502;13.486;2023-06-04T01:58:04;101582.63;;;11.14;57.24
55610;BME280;41486;52.502;13.486;2023-06-04T02:00:34;101579.34;;;11.11;57.83
55610;BME280;41486;52.502;13.486;2023-06-04T02:03:02;101576.28;;;11.04;58.69
55610;BME280;41486;52.502;13.486;2023-06-04T02:05:31;101573.56;;;10.91;59.22
55610;BME280;41486;52.502;13.486;2023-06-04T02:07:59;101566.50;;;10.92;59.59
55610;BME280;41486;52.502;13.486;2023-06-04T02:10:30;101565.59;;;10.78;60.19
55610;BME280;41486;52.502;13.486;2023-06-04T02:12:59;101567.09;;;10.68;60.66
55610;BME280;41486;52.502;13.486;2023-06-04T02:15:30;101577.63;;;10.68;60.72
55610;BME280;41486;52.502;13.486;2023-06-04T02:18:10;101569.28;;;10.61;61.15
55610;BME280;41486;52.502;13.486;2023-06-04T02:20:45;101570.91;;;10.49;61.76
55610;BME280;41486;52.502;13.486;2023-06-04T02:23:14;101570.13;;;10.62;61.79
55610;BME280;41486;52.502;13.486;2023-06-04T02:25:45;101567.22;;;10.52;62.87
55610;BME280;41486;52.502;13.486;2023-06-04T02:28:14;101570.22;;;10.46;63.64
55610;BME280;41486;52.502;13.486;2023-06-04T02:30:44;101569.34;;;10.31;64.28
55610;BME280;41486;52.502;13.486;2023-06-04T02:33:12;101570.28;;;10.30;64.63
55610;BME280;41486;52.502;13.486;2023-06-04T02:35:41;101562.78;;;10.38;64.31
55610;BME280;41486;52.502;13.486;2023-06-04T02:38:09;101575.13;;;10.37;64.55
55610;BME280;41486;52.502;13.486;2023-06-04T02:40:38;101571.31;;;10.27;64.65
55610;BME280;41486;52.502;13.486;2023-06-04T02:43:08;101575.44;;;10.31;64.99
55610;BME280;41486;52.502;13.486;2023-06-04T02:45:36;101577.28;;;10.15;65.74
55610;BME280;41486;52.502;13.486;2023-06-04T02:48:04;101579.28;;;10.25;65.49
55610;BME280;41486;52.502;13.486;2023-06-04T02:50:32;101577.69;;;10.23;65.41
55610;BME280;41486;52.502;13.486;2023-06-04T02:53:00;101575.97;;;10.07;66.61
55610;BME280;41486;52.502;13.486;2023-06-04T02:55:28;101581.31;;;10.06;67.13
55610;BME280;41486;52.502;13.486;2023-06-04T02:57:57;101580.00;;;9.99;67.07
55610;BME280;41486;52.502;13.486;2023-06-04T03:00:30;101580.28;;;9.94;67.82
55610;BME280;41486;52.502;13.486;2023-06-04T03:02:58;101580.03;;;10.13;67.86
55610;BME280;41486;52.502;13.486;2023-06-04T03:05:31;101573.53;;;10.04;68.50
55610;BME280;41486;52.502;13.486;2023-06-04T03:08:01;101576.47;;;10.14;68.47
55610;BME280;41486;52.502;13.486;2023-06-04T03:10:30;101577.00;;;10.50;68.21
55610;BME280;41486;52.502;13.486;2023-06-04T03:12:59;101580.19;;;10.10;69.17
55610;BME280;41486;52.502;13.486;2023-06-04T03:15:28;101578.13;;;10.01;69.47
55610;BME280;41486;52.502;13.486;2023-06-04T03:17:56;101582.78;;;9.95;70.35
55610;BME280;41486;52.502;13.486;2023-06-04T03:20:26;101577.16;;;10.02;69.66
55610;BME280;41486;52.502;13.486;2023-06-04T03:22:54;101576.16;;;10.04;69.21
55610;BME280;41486;52.502;13.486;2023-06-04T03:25:22;101577.56;;;10.10;69.48
55610;BME280;41486;52.502;13.486;2023-06-04T03:27:50;101576.84;;;10.08;69.26
55610;BME280;41486;52.502;13.486;2023-06-04T03:30:18;101576.88;;;9.92;70.15
55610;BME280;41486;52.502;13.486;2023-06-04T03:33:02;101582.50;;;9.86;70.57
55610;BME280;41486;52.502;13.486;2023-06-04T03:35:31;101583.66;;;9.96;70.42
55610;BME280;41486;52.502;13.486;2023-06-04T03:37:59;101581.19;;;9.93;70.38
55610;BME280;41486;52.502;13.486;2023-06-04T03:40:28;101581.47;;;9.88;70.63
55610;BME280;41486;52.502;13.486;2023-06-04T03:42:56;101586.19;;;9.98;70.68
55610;BME280;41486;52.502;13.486;2023-06-04T03:45:27;101582.66;;;10.27;68.72
55610;BME280;41486;52.502;13.486;2023-06-04T03:47:56;101587.81;;;10.15;69.53
55610;BME280;41486;52.502;13.486;2023-06-04T03:50:26;101581.06;;;10.10;70.19
55610;BME280;41486;52.502;13.486;2023-06-04T03:52:55;101584.53;;;10.11;70.53
55610;BME280;41486;52.502;13.486;2023-06-04T03:55:30;101578.63;;;10.22;71.42
55610;BME280;41486;52.502;13.486;2023-06-04T03:57:59;101586.06;;;10.30;70.53
55610;BME280;41486;52.502;13.486;2023-06-04T04:00:28;101579.88;;;10.31;70.51
55610;BME280;41486;52.502;13.486;2023-06-04T04:02:59;101583.44;;;10.30;71.02
55610;BME280;41486;52.502;13.486;2023-06-04T04:05:32;101591.03;;;10.34;70.32
55610;BME280;41486;52.502;13.486;2023-06-04T04:08:01;101592.34;;;10.27;70.45
55610;BME280;41486;52.502;13.486;2023-06-04T04:10:32;101593.47;;;10.23;70.62
55610;BME280;41486;52.502;13.486;2023-06-04T04:13:00;101579.63;;;10.50;69.30
55610;BME280;41486;52.502;13.486;2023-06-04T04:15:31;101588.09;;;10.69;67.78
55610;BME280;41486;52.502;13.486;2023-06-04T04:18:00;101592.00;;;10.62;67.64
55610;BME280;41486;52.502;13.486;2023-06-04T04:20:32;101590.16;;;10.64;68.64
55610;BME280;41486;52.502;13.486;2023-06-04T04:23:04;101598.03;;;10.93;68.04
55610;BME280;41486;52.502;13.486;2023-06-04T04:25:34;101588.34;;;10.79;68.08
55610;BME280;41486;52.502;13.486;2023-06-04T04:28:04;101596.88;;;10.97;68.35
55610;BME280;41486;52.502;13.486;2023-06-04T04:30:34;101596.41;;;10.91;67.41
55610;BME280;41486;52.502;13.486;2023-06-04T04:33:04;101603.31;;;10.93;66.65
55610;BME280;41486;52.502;13.486;2023-06-04T04:35:39;101606.63;;;11.10;65.60
55610;BME280;41486;52.502;13.486;2023-06-04T04:38:09;101600.53;;;11.09;64.94
55610;BME280;41486;52.502;13.486;2023-06-04T04:40:43;101598.72;;;11.24;63.77
55610;BME280;41486;52.502;13.486;2023-06-04T04:43:14;101592.50;;;11.25;64.18
55610;BME280;41486;52.502;13.486;2023-06-04T04:45:43;101595.50;;;11.33;62.47
55610;BME280;41486;52.502;13.486;2023-06-04T04:48:11;101597.16;;;11.49;61.46
55610;BME280;41486;52.502;13.486;2023-06-04T04:50:40;101598.38;;;12.24;60.70
55610;BME280;41486;52.502;13.486;2023-06-04T04:53:11;101604.09;;;12.18;57.85
55610;BME280;41486;52.502;13.486;2023-06-04T04:55:39;101601.25;;;11.93;59.17
55610;BME280;41486;52.502;13.486;2023-06-04T04:58:07;101593.22;;;11.82;59.83
55610;BME280;41486;52.502;13.486;2023-06-04T05:00:36;101603.25;;;11.90;60.61
55610;BME280;41486;52.502;13.486;2023-06-04T05:03:04;101602.94;;;12.48;60.19
55610;BME280;41486;52.502;13.486;2023-06-04T05:05:32;101613.78;;;12.30;58.47
55610;BME280;41486;52.502;13.486;2023-06-04T05:08:04;101610.09;;;12.20;58.87
55610;BME280;41486;52.502;13.486;2023-06-04T05:10:38;101606.72;;;12.56;57.31
55610;BME280;41486;52.502;13.486;2023-06-04T05:13:08;101611.25;;;12.67;57.18
55610;BME280;41486;52.502;13.486;2023-06-04T05:15:49;101621.19;;;12.38;58.08
55610;BME280;41486;52.502;13.486;2023-06-04T05:18:22;101613.56;;;12.46;57.68
55610;BME280;41486;52.502;13.486;2023-06-04T05:20:59;101611.59;;;13.13;55.89
55610;BME280;41486;52.502;13.486;2023-06-04T05:23:33;101611.03;;;12.83;56.67
55610;BME280;41486;52.502;13.486;2023-06-04T05:26:04;101611.47;;;12.77;57.46
55610;BME280;41486;52.502;13.486;2023-06-04T05:28:32;101610.59;;;12.89;57.58
55610;BME280;41486;52.502;13.486;2023-06-04T05:31:02;101613.97;;;12.91;56.36
55610;BME280;41486;52.502;13.486;2023-06-04T05:33:33;101605.56;;;13.35;55.52
55610;BME280;41486;52.502;13.486;2023-06-04T05:36:06;101615.19;;;13.12;56.12
55610;BME280;41486;52.502;13.486;2023-06-04T05:38:41;101613.69;;;13.07;56.51
55610;BME280;41486;52.502;13.486;2023-06-04T05:41:12;101615.81;;;13.15;55.04
55610;BME280;41486;52.502;13.486;2023-06-04T05:43:41;101625.06;;;13.34;54.01
55610;BME280;41486;52.502;13.486;2023-06-04T05:46:12;101622.72;;;13.66;53.64
55610;BME280;41486;52.502;13.486;2023-06-04T05:48:42;101626.81;;;13.70;53.02
55610;BME280;41486;52.502;13.486;2023-06-04T05:51:12;101628.41;;;13.73;52.18
55610;BME280;41486;52.502;13.486;2023-06-04T05:53:43;101626.13;;;13.80;52.19
55610;BME280;41486;52.502;13.486;2023-06-04T05:56:11;101626.31;;;13.90;52.01
55610;BME280;41486;52.502;13.486;2023-06-04T05:58:40;101626.59;;;14.09;52.43
55610;BME280;41486;52.502;13.486;2023-06-04T06:01:10;101626.25;;;14.14;51.52
55610;BME280;41486;52.502;13.486;2023-06-04T06:03:38;101633.88;;;14.30;51.41
55610;BME280;41486;52.502;13.486;2023-06-04T06:06:06;101628.00;;;14.49;50.74
55610;BME280;41486;52.502;13.486;2023-06-04T06:08:39;101627.03;;;14.39;50.70
55610;BME280;41486;52.502;13.486;2023-06-04T06:11:09;101631.06;;;14.90;51.27
55610;BME280;41486;52.502;13.486;2023-06-04T06:13:37;101638.78;;;14.70;49.23
55610;BME280;41486;52.502;13.486;2023-06-04T06:16:08;101632.00;;;14.89;49.25
55610;BME280;41486;52.502;13.486;2023-06-04T06:18:37;101634.56;;;14.79;49.37
55610;BME280;41486;52.502;13.486;2023-06-04T06:21:07;101642.59;;;14.89;48.28
55610;BME280;41486;52.502;13.486;2023-06-04T06:23:36;101638.41;;;14.97;47.97
55610;BME280;41486;52.502;13.486;2023-06-04T06:26:08;101641.38;;;15.16;48.16
55610;BME280;41486;52.502;13.486;2023-06-04T06:28:45;101646.94;;;15.12;46.14
55610;BME280;41486;52.502;13.486;2023-06-04T06:31:14;101646.56;;;15.28;46.11
55610;BME280;41486;52.502;13.486;2023-06-04T06:33:43;101644.50;;;15.65;46.10
55610;BME280;41486;52.502;13.486;2023-06-04T06:36:11;101644.66;;;15.63;45.00
55610;BME280;41486;52.502;13.486;2023-06-04T06:38:41;101644.28;;;15.56;45.91
55610;BME280;41486;52.502;13.486;2023-06-04T06:41:11;101650.91;;;15.62;44.41
55610;BME280;41486;52.502;13.486;2023-06-04T06:43:39;101643.91;;;15.72;43.85
55610;BME280;41486;52.502;13.486;2023-06-04T06:46:07;101644.94;;;15.81;43.41
55610;BME280;41486;52.502;13.486;2023-06-04T06:48:35;101643.75;;;16.06;43.54
55610;BME280;41486;52.502;13.486;2023-06-04T06:51:09;101655.19;;;15.86;42.89
55610;BME280;41486;52.502;13.486;2023-06-04T06:53:37;101653.69;;;16.26;41.88
55610;BME280;41486;52.502;13.486;2023-06-04T06:56:06;101647.84;;;16.32;40.73
55610;BME280;41486;52.502;13.486;2023-06-04T06:58:35;101645.38;;;16.40;40.50
55610;BME280;41486;52.502;13.486;2023-06-04T07:01:03;101646.41;;;16.49;40.30
55610;BME280;41486;52.502;13.486;2023-06-04T07:03:33;101647.31;;;16.38;41.29
55610;BME280;41486;52.502;13.486;2023-06-04T07:06:01;101647.53;;;16.56;39.40
55610;BME280;41486;52.502;13.486;2023-06-04T07:08:29;101655.59;;;16.66;38.45
55610;BME280;41486;52.502;13.486;2023-06-04T07:10:58;101652.97;;;16.45;38.90
55610;BME280;41486;52.502;13.486;2023-06-04T07:13:26;101653.75;;;16.66;38.97
55610;BME280;41486;52.502;13.486;2023-06-04T07:15:56;101654.00;;;16.63;38.46
55610;BME280;41486;52.502;13.486;2023-06-04T07:18:24;101652.47;;;16.61;39.22
55610;BME280;41486;52.502;13.486;2023-06-04T07:20:52;101653.78;;;16.76;39.30
55610;BME280;41486;52.502;13.486;2023-06-04T07:23:23;101648.47;;;16.76;38.38
55610;BME280;41486;52.502;13.486;2023-06-04T07:25:51;101651.69;;;16.70;37.82
55610;BME280;41486;52.502;13.486;2023-06-04T07:28:19;101647.97;;;16.82;37.66
55610;BME280;41486;52.502;13.486;2023-06-04T07:30:50;101653.31;;;16.92;36.86
55610;BME280;41486;52.502;13.486;2023-06-04T07:33:20;101654.94;;;16.83;37.46
55610;BME280;41486;52.502;13.486;2023-06-04T07:35:48;101653.91;;;16.96;36.77
55610;BME280;41486;52.502;13.486;2023-06-04T07:38:18;101656.34;;;17.09;36.93
55610;BME280;41486;52.502;13.486;2023-06-04T07:40:49;101661.28;;;17.23;36.76
55610;BME280;41486;52.502;13.486;2023-06-04T07:43:17;101658.34;;;17.26;37.10
55610;BME280;41486;52.502;13.486;2023-06-04T07:45:45;101659.34;;;17.35;37.34
55610;BME280;41486;52.502;13.486;2023-06-04T07:48:14;101656.56;;;17.46;36.19
55610;BME280;41486;52.502;13.486;2023-06-04T07:50:47;101660.22;;;17.55;35.43
55610;BME280;41486;52.502;13.486;2023-06-04T07:53:17;101654.31;;;17.71;35.69
55610;BME280;41486;52.502;13.486;2023-06-04T07:55:45;101652.94;;;17.77;36.28
55610;BME280;41486;52.502;13.486;2023-06-04T07:58:13;101650.84;;;17.80;36.56
55610;BME280;41486;52.502;13.486;2023-06-04T08:00:43;101653.63;;;17.89;34.28
55610;BME280;41486;52.502;13.486;2023-06-04T08:03:11;101657.56;;;18.04;35.06
55610;BME280;41486;52.502;13.486;2023-06-04T08:05:46;101652.22;;;17.94;33.99
55610;BME280;41486;52.502;13.486;2023-06-04T08:08:14;101652.13;;;17.96;34.32
55610;BME280;41486;52.502;13.486;2023-06-04T08:10:42;101652.25;;;18.04;34.78
55610;BME280;41486;52.502;13.486;2023-06-04T08:13:10;101657.56;;;18.04;34.74
55610;BME280;41486;52.502;13.486;2023-06-04T08:15:45;101654.66;;;17.97;33.37
55610;BME280;41486;52.502;13.486;2023-06-04T08:18:33;101651.94;;;17.88;33.11
55610;BME280;41486;52.502;13.486;2023-06-04T08:21:11;101660.22;;;17.94;32.81
55610;BME280;41486;52.502;13.486;2023-06-04T08:23:55;101657.19;;;17.99;32.94
55610;BME280;41486;52.502;13.486;2023-06-04T09:34:31;101652.06;;;19.57;30.97
55610;BME280;41486;52.502;13.486;2023-06-04T09:37:23;101656.47;;;19.48;30.66
55610;BME280;41486;52.502;13.486;2023-06-04T09:40:04;101653.75;;;19.58;31.31
55610;BME280;41486;52.502;13.486;2023-06-04T09:46:29;101654.75;;;20.11;30.40
55610;BME280;41486;52.502;13.486;2023-06-04T09:49:26;101652.84;;;20.03;30.10
55610;BME280;41486;52.502;13.486;2023-06-04T09:54:33;101655.50;;;20.03;30.24
55610;BME280;41486;52.502;13.486;2023-06-04T10:01:13;101653.47;;;19.97;29.99
55610;BME280;41486;52.502;13.486;2023-06-04T10:08:21;101646.66;;;20.55;29.92
55610;BME280;41486;52.502;13.486;2023-06-04T10:11:59;101647.88;;;20.61;28.83
55610;BME280;41486;52.502;13.486;2023-06-04T10:15:07;101654.53;;;20.57;28.55
55610;BME280;41486;52.502;13.486;2023-06-04T10:18:30;101645.72;;;20.99;28.32
55610;BME280;41486;52.502;13.486;2023-06-04T10:22:29;101649.91;;;21.69;27.07
55610;BME280;41486;52.502;13.486;2023-06-04T10:24:58;101645.91;;;22.15;26.82
55610;BME280;41486;52.502;13.486;2023-06-04T10:28:03;101651.59;;;21.87;27.69
55610;BME280;41486;52.502;13.486;2023-06-04T10:30:46;101646.47;;;21.18;27.33
55610;BME280;41486;52.502;13.486;2023-06-04T10:33:37;101651.34;;;21.31;27.93
55610;BME280;41486;52.502;13.486;2023-06-04T10:36:24;101650.50;;;21.38;27.57
55610;BME280;41486;52.502;13.486;2023-06-04T10:39:30;101646.97;;;22.62;26.96
55610;BME280;41486;52.502;13.486;2023-06-04T10:42:15;101652.28;;;22.78;26.76
55610;BME280;41486;52.502;13.486;2023-06-04T10:49:36;101652.19;;;23.03;25.75
55610;BME280;41486;52.502;13.486;2023-06-04T10:54:49;101643.03;;;22.81;26.77
55610;BME280;41486;52.502;13.486;2023-06-04T10:56:25;101644.78;;;23.37;25.11
55610;BME280;41486;52.502;13.486;2023-06-04T10:59:20;101636.91;;;22.64;25.37
55610;BME280;41486;52.502;13.486;2023-06-04T11:02:31;101646.25;;;23.16;25.12
55610;BME280;41486;52.502;13.486;2023-06-04T11:05:07;101638.72;;;23.66;24.83
55610;BME280;41486;52.502;13.486;2023-06-04T11:08:01;101635.84;;;23.68;25.13
55610;BME280;41486;52.502;13.486;2023-06-04T11:11:20;101638.31;;;22.91;25.67
55610;BME280;41486;52.502;13.486;2023-06-04T11:14:08;101635.84;;;22.09;26.41
55610;BME280;41486;52.502;13.486;2023-06-04T11:17:24;101638.00;;;23.96;24.35
55610;BME280;41486;52.502;13.486;2023-06-04T11:21:22;101637.50;;;26.90;21.67
55610;BME280;41486;52.502;13.486;2023-06-04T11:24:31;101628.81;;;26.18;21.66
55610;BME280;41486;52.502;13.486;2023-06-04T11:31:04;101633.38;;;25.09;22.80
55610;BME280;41486;52.502;13.486;2023-06-04T11:34:03;101628.16;;;26.16;22.36
55610;BME280;41486;52.502;13.486;2023-06-04T11:36:52;101642.81;;;28.53;20.13
55610;BME280;41486;52.502;13.486;2023-06-04T11:40:14;101627.53;;;26.91;21.69
55610;BME280;41486;52.502;13.486;2023-06-04T11:42:42;101636.31;;;29.45;18.99
55610;BME280;41486;52.502;13.486;2023-06-04T11:45:12;101626.78;;;29.68;18.87
55610;BME280;41486;52.502;13.486;2023-06-04T11:47:44;101620.81;;;29.84;18.54
55610;BME280;41486;52.502;13.486;2023-06-04T11:50:16;101628.13;;;30.46;18.11
55610;BME280;41486;52.502;13.486;2023-06-04T11:52:53;101628.34;;;27.74;20.16
55610;BME280;41486;52.502;13.486;2023-06-04T11:55:35;101630.34;;;30.49;17.78
55610;BME280;41486;52.502;13.486;2023-06-04T11:58:29;101630.44;;;29.55;18.57
55610;BME280;41486;52.502;13.486;2023-06-04T12:01:06;101630.16;;;29.88;18.67
55610;BME280;41486;52.502;13.486;2023-06-04T12:03:37;101623.28;;;27.37;20.38
55610;BME280;41486;52.502;13.486;2023-06-04T12:06:17;101623.84;;;29.95;18.36
55610;BME280;41486;52.502;13.486;2023-06-04T12:09:04;101622.28;;;28.18;20.43
55610;BME280;41486;52.502;13.486;2023-06-04T12:11:43;101612.63;;;28.49;19.70
55610;BME280;41486;52.502;13.486;2023-06-04T12:18:11;101620.22;;;26.78;21.22
55610;BME280;41486;52.502;13.486;2023-06-04T12:20:48;101613.91;;;27.26;21.04
55610;BME280;41486;52.502;13.486;2023-06-04T12:23:45;101606.19;;;26.19;21.89
55610;BME280;41486;52.502;13.486;2023-06-04T12:26:21;101610.94;;;26.17;22.19
55610;BME280;41486;52.502;13.486;2023-06-04T12:28:59;101603.50;;;26.61;21.20
55610;BME280;41486;52.502;13.486;2023-06-04T12:31:40;101608.41;;;25.59;22.85
55610;BME280;41486;52.502;13.486;2023-06-04T12:35:21;101610.56;;;25.27;22.17
55610;BME280;41486;52.502;13.486;2023-06-04T12:38:09;101605.94;;;23.94;23.95
55610;BME280;41486;52.502;13.486;2023-06-04T12:41:39;101603.47;;;24.22;23.77
55610;BME280;41486;52.502;13.486;2023-06-04T12:44:28;101596.69;;;24.26;23.60
55610;BME280;41486;52.502;13.486;2023-06-04T12:47:28;101599.19;;;23.28;24.04
55610;BME280;41486;52.502;13.486;2023-06-04T12:50:13;101598.97;;;24.89;23.04
55610;BME280;41486;52.502;13.486;2023-06-04T12:52:49;101597.16;;;24.75;22.97
55610;BME280;41486;52.502;13.486;2023-06-04T12:55:18;101605.28;;;24.52;22.59
55610;BME280;41486;52.502;13.486;2023-06-04T12:57:48;101595.22;;;25.42;22.47
55610;BME280;41486;52.502;13.486;2023-06-04T13:00:23;101596.50;;;27.62;20.10
55610;BME280;41486;52.502;13.486;2023-06-04T13:02:51;101601.19;;;27.06;20.79
55610;BME280;41486;52.502;13.486;2023-06-04T13:05:19;101606.75;;;26.85;20.02
55610;BME280;41486;52.502;13.486;2023-06-04T13:07:47;101603.19;;;25.57;21.07
55610;BME280;41486;52.502;13.486;2023-06-04T13:10:15;101599.03;;;26.82;20.54
55610;BME280;41486;52.502;13.486;2023-06-04T13:12:44;101601.88;;;26.73;20.52
55610;BME280;41486;52.502;13.486;2023-06-04T13:15:13;101596.91;;;28.06;19.55
55610;BME280;41486;52.502;13.486;2023-06-04T13:17:41;101606.47;;;28.02;19.75
55610;BME280;41486;52.502;13.486;2023-06-04T13:20:10;101600.94;;;29.01;18.65
55610;BME280;41486;52.502;13.486;2023-06-04T13:22:38;101599.22;;;29.46;18.45
55610;BME280;41486;52.502;13.486;2023-06-04T13:25:07;101592.00;;;29.26;18.92
55610;BME280;41486;52.502;13.486;2023-06-04T13:27:36;101596.50;;;27.55;20.07
55610;BME280;41486;52.502;13.486;2023-06-04T13:30:05;101596.41;;;27.08;20.40
55610;BME280;41486;52.502;13.486;2023-06-04T13:32:35;101587.19;;;26.83;20.99
55610;BME280;41486;52.502;13.486;2023-06-04T13:35:04;101587.13;;;27.71;20.51
55610;BME280;41486;52.502;13.486;2023-06-04T13:37:32;101582.63;;;25.28;22.63
55610;BME280;41486;52.502;13.486;2023-06-04T13:40:01;101583.72;;;26.47;21.92
55610;BME280;41486;52.502;13.486;2023-06-04T13:42:29;101579.25;;;24.07;23.45
55610;BME280;41486;52.502;13.486;2023-06-04T13:44:57;101566.22;;;24.86;23.12
55610;BME280;41486;52.502;13.486;2023-06-04T13:47:25;101574.81;;;26.11;21.75
55610;BME280;41486;52.502;13.486;2023-06-04T13:49:55;101563.03;;;25.41;22.76
55610;BME280;41486;52.502;13.486;2023-06-04T13:52:25;101569.75;;;25.30;23.21
55610;BME280;41486;52.502;13.486;2023-06-04T13:54:55;101571.81;;;25.71;22.32
55610;BME280;41486;52.502;13.486;2023-06-04T13:57:23;101575.47;;;26.20;21.32
55610;BME280;41486;52.502;13.486;2023-06-04T13:59:51;101572.72;;;25.57;21.18
55610;BME280;41486;52.502;13.486;2023-06-04T14:02:20;101569.41;;;24.75;22.87
55610;BME280;41486;52.502;13.486;2023-06-04T14:04:49;101566.47;;;26.06;22.03
55610;BME280;41486;52.502;13.486;2023-06-04T14:07:19;101568.44;;;25.41;22.29
55610;BME280;41486;52.502;13.486;2023-06-04T14:09:47;101559.66;;;25.82;21.92
55610;BME280;41486;52.502;13.486;2023-06-04T14:12:21;101568.03;;;26.22;22.19
55610;BME280;41486;52.502;13.486;2023-06-04T14:14:52;101564.84;;;25.55;22.92
55610;BME280;41486;52.502;13.486;2023-06-04T14:17:20;101558.63;;;26.11;22.95
55610;BME280;41486;52.502;13.486;2023-06-04T14:19:48;101555.97;;;25.90;22.21
55610;BME280;41486;52.502;13.486;2023-06-04T14:22:16;101551.63;;;25.60;22.19
55610;BME280;41486;52.502;13.486;2023-06-04T14:24:46;101549.22;;;25.29;22.76
55610;BME280;41486;52.502;13.486;2023-06-04T14:27:14;101557.13;;;25.09;23.13
55610;BME280;41486;52.502;13.486;2023-06-04T14:29:42;101559.28;;;24.32;23.40
55610;BME280;41486;52.502;13.486;2023-06-04T14:32:10;101558.72;;;23.91;22.95
55610;BME280;41486;52.502;13.486;2023-06-04T14:34:38;101549.78;;;25.17;22.18
55610;BME280;41486;52.502;13.486;2023-06-04T14:37:06;101555.88;;;25.76;21.65
55610;BME280;41486;52.502;13.486;2023-06-04T14:39:34;101551.81;;;25.87;21.72
55610;BME280;41486;52.502;13.486;2023-06-04T14:42:05;101552.84;;;26.21;21.32
55610;BME280;41486;52.502;13.486;2023-06-04T14:44:33;101547.50;;;26.28;21.72
55610;BME280;41486;52.502;13.486;2023-06-04T14:47:01;101557.91;;;26.38;21.72
55610;BME280;41486;52.502;13.486;2023-06-04T14:49:29;101558.13;;;25.73;22.05
55610;BME280;41486;52.502;13.486;2023-06-04T14:51:57;101543.81;;;25.72;22.19
55610;BME280;41486;52.502;13.486;2023-06-04T14:54:25;101557.53;;;25.77;21.99